Messwerte Musoma

Temperatur

Temperatur
°C
1573920000 19.00 19.00 25
1573923600 20.00 20.00 25
1573927200 21.00 21.00 24
1573930800 22.00 22.00 24
1573934400 23.00 23.00 23
1573938000 0.00 0.00 23
1573941600 1.00 1.00 23
1573945200 2.00 2.00
1573948800 3.00 3.00 21
1573952400 4.00 4.00
1573956000 5.00 5.00
1573959600 6.00 6.00 22
1573963200 7.00 7.00 22
1573966800 8.00 8.00 23
1573970400 9.00 9.00 25
1573974000 10.00 10.00 26
1573977600 11.00 11.00 28
1573981200 12.00 12.00 28
1573984800 13.00 13.00 27
1573988400 14.00 14.00 27
1573992000 15.00 15.00 28
1573995600 16.00 16.00 27
1573999200 17.00 17.00 27
1574002800 18.00 18.00 26

Aktuellste Messwerte

Wettercharakter
Wetter: recht sonnig
Temperatur
26 °C
Feuchtigkeit
75 %
Wind
20 km/hWindrichtung: West
Luftdruck
1011 hPa
Messzeit: 17. November 2019, 18.00Datenquelle: METAR

Weitere Messstationen in der Nähe

Messstation Temperatur Entfernung
Mwanza - 145 km
Kisumu - 188 km
Bukoba - 221 km
Entebbe - 228 km
Eldoret 18 °C 279 km
Nairobi 22 °C 336 km
Nairobi 20 °C 347 km

Wind

Windrichtung Böen Mittelwind
° km/h km/h
1573920000 19.00 18.00 - 19.00 270° 10
1573923600 20.00 19.00 - 20.00 0
1573927200 21.00 20.00 - 21.00 0
1573930800 22.00 21.00 - 22.00 0
1573934400 23.00 22.00 - 23.00 0
1573938000 0.00 23.00 - 0.00 80° 10
1573941600 1.00 0.00 - 1.00 0
1573945200 2.00 1.00 - 2.00
1573948800 3.00 2.00 - 3.00 0
1573952400 4.00 3.00 - 4.00
1573956000 5.00 4.00 - 5.00
1573959600 6.00 5.00 - 6.00 0
1573963200 7.00 6.00 - 7.00 0
1573966800 8.00 7.00 - 8.00 0
1573970400 9.00 8.00 - 9.00 80° 5
1573974000 10.00 9.00 - 10.00 60° 10
1573977600 11.00 10.00 - 11.00 70° 10
1573981200 12.00 11.00 - 12.00 330° 20
1573984800 13.00 12.00 - 13.00 330° 20
1573988400 14.00 13.00 - 14.00 320° 20
1573992000 15.00 14.00 - 15.00 290° 20
1573995600 16.00 15.00 - 16.00 320° 20
1573999200 17.00 16.00 - 17.00 270° 20
1574002800 18.00 17.00 - 18.00 290° 20

Ihre Wetterstation

Fehlt Ihre Wetterstation auf unserem Portal?

Schreiben Sie an network@meteonews.ch

Klima

Wann ist es am wärmsten? Wann regnet es am wenigsten? Unsere Klimadaten geben Auskunft.